Time;durP1;ratioP1;P1;durP2;ratioP2;P2;SDS_P1;SDS_P2;PMS_P1;PMS_P2;Temp;Humidity;BMP_temperature;BMP_pressure;BME280_temperature;BME280_humidity;BME280_pressure;Samples;Min_cycle;Max_cycle;Signal;HPM_P1;HPM_P2
2023/02/23 00:00:26;;;;;;;59.88;22.45;;;;;;;;;;5063915;28;20028;-58
2023/02/23 00:02:54;;;;;;;53.05;20.58;;;;;;;;;;5066738;28;20485;-58
2023/02/23 00:05:20;;;;;;;45.55;20.02;;;;;;;;;;5065503;28;20111;-58
2023/02/23 00:07:46;;;;;;;40.17;18.65;;;;;;;;;;5062939;28;20035;-58
2023/02/23 00:10:13;;;;;;;45.25;18.50;;;;;;;;;;5068298;28;20394;-58
2023/02/23 00:12:40;;;;;;;41.65;17.17;;;;;;;;;;5072211;28;20031;-58
2023/02/23 00:15:06;;;;;;;43.80;18.20;;;;;;;;;;5070149;28;20099;-58
2023/02/23 00:17:35;;;;;;;39.97;17.45;;;;;;;;;;5067896;28;20107;-58
2023/02/23 00:20:06;;;;;;;40.00;16.20;;;;;;;;;;5066771;28;20024;-58
2023/02/23 00:22:31;;;;;;;39.55;16.67;;;;;;;;;;5071273;28;20029;-58
2023/02/23 00:24:58;;;;;;;47.00;18.02;;;;;;;;;;5071437;28;20039;-58
2023/02/23 00:27:24;;;;;;;47.15;18.92;;;;;;;;;;5068957;28;20032;-58
2023/02/23 00:29:49;;;;;;;39.45;17.73;;;;;;;;;;5073101;28;20073;-58
2023/02/23 00:32:21;;;;;;;33.65;16.13;;;;;;;;;;5069827;28;20497;-59
2023/02/23 00:34:50;;;;;;;31.75;14.82;;;;;;;;;;5070113;28;20020;-58
2023/02/23 00:37:17;;;;;;;36.97;16.58;;;;;;;;;;5067876;28;20561;-59
2023/02/23 00:39:43;;;;;;;35.17;16.20;;;;;;;;;;5064120;28;20115;-58
2023/02/23 00:42:09;;;;;;;36.97;16.48;;;;;;;;;;5068884;28;20120;-58
2023/02/23 00:44:35;;;;;;;32.88;15.55;;;;;;;;;;5067029;28;20029;-58
2023/02/23 00:47:01;;;;;;;37.10;16.52;;;;;;;;;;5067427;28;20036;-58
2023/02/23 00:49:27;;;;;;;35.90;15.68;;;;;;;;;;5069334;28;20032;-58
2023/02/23 00:51:52;;;;;;;33.65;15.07;;;;;;;;;;5069625;28;20032;-59
2023/02/23 00:54:20;;;;;;;35.25;16.05;;;;;;;;;;5068820;28;20040;-58
2023/02/23 00:56:46;;;;;;;39.45;15.52;;;;;;;;;;5067309;28;20032;-58
2023/02/23 00:59:13;;;;;;;39.80;15.95;;;;;;;;;;5067662;28;20025;-58
2023/02/23 01:01:40;;;;;;;32.95;15.23;;;;;;;;;;5068896;28;20024;-58
2023/02/23 01:04:06;;;;;;;36.78;14.68;;;;;;;;;;5069204;28;20393;-59
2023/02/23 01:06:32;;;;;;;35.75;14.13;;;;;;;;;;5066771;28;20482;-58
2023/02/23 01:08:58;;;;;;;30.23;12.60;;;;;;;;;;5067002;28;20029;-58
2023/02/23 01:11:29;;;;;;;31.73;12.85;;;;;;;;;;5068352;28;20025;-58
2023/02/23 01:13:57;;;;;;;27.75;12.82;;;;;;;;;;5066558;28;20093;-58
2023/02/23 01:16:26;;;;;;;32.30;13.90;;;;;;;;;;5068061;28;20036;-58
2023/02/23 01:18:52;;;;;;;;;;;;;;;;;;5061352;28;20051;-58
2023/02/23 01:21:24;;;;;;;28.58;11.85;;;;;;;;;;5066032;28;19912;-58
2023/02/23 01:23:51;;;;;;;27.33;11.32;;;;;;;;;;5069152;28;20107;-58
2023/02/23 01:26:20;;;;;;;33.95;13.45;;;;;;;;;;5063271;28;20036;-58
2023/02/23 01:28:49;;;;;;;;;;;;;;;;;;5067919;28;20032;-58
2023/02/23 01:31:15;;;;;;;27.48;11.50;;;;;;;;;;5069934;28;19912;-58
2023/02/23 01:33:41;;;;;;;26.50;11.68;;;;;;;;;;5068080;28;20029;-58
2023/02/23 01:36:07;;;;;;;24.02;10.73;;;;;;;;;;5067082;28;20431;-58
2023/02/23 01:38:32;;;;;;;28.02;12.23;;;;;;;;;;5067358;28;20031;-58
2023/02/23 01:40:57;;;;;;;28.48;12.57;;;;;;;;;;5068138;28;20091;-58
2023/02/23 01:43:26;;;;;;;27.20;11.07;;;;;;;;;;5068001;28;20039;-58
2023/02/23 01:45:56;;;;;;;22.60;10.70;;;;;;;;;;5067492;28;20032;-58
2023/02/23 01:48:43;;;;;;;24.63;10.57;;;;;;;;;;5066308;28;20371;-58
2023/02/23 01:51:12;;;;;;;24.33;11.35;;;;;;;;;;5063320;28;20041;-59
2023/02/23 01:53:47;;;;;;;23.08;10.45;;;;;;;;;;5065536;28;20456;-58
2023/02/23 01:56:21;;;;;;;25.00;10.32;;;;;;;;;;5066410;28;20060;-59
2023/02/23 01:58:53;;;;;;;22.00;10.18;;;;;;;;;;5061518;28;20032;-58
2023/02/23 02:01:19;;;;;;;27.77;10.90;;;;;;;;;;5066794;28;20485;-58
2023/02/23 02:03:46;;;;;;;26.40;10.82;;;;;;;;;;5065590;28;20040;-58
2023/02/23 02:06:15;;;;;;;25.38;10.60;;;;;;;;;;5065885;28;20426;-58
2023/02/23 02:08:45;;;;;;;23.13;10.63;;;;;;;;;;5064791;28;20028;-57
2023/02/23 02:11:29;;;;;;;26.52;11.23;;;;;;;;;;5066991;28;20031;-58
2023/02/23 02:14:12;;;;;;;24.58;10.50;;;;;;;;;;5064734;28;20029;-58
2023/02/23 02:16:41;;;;;;;23.65;10.10;;;;;;;;;;5067495;28;20067;-58
2023/02/23 02:19:25;;;;;;;25.95;10.15;;;;;;;;;;5066879;28;20448;-59
2023/02/23 02:22:28;;;;;;;24.48;11.35;;;;;;;;;;5064539;28;20028;-58
2023/02/23 02:25:31;;;;;;;25.77;11.50;;;;;;;;;;5066654;28;20485;-58
2023/02/23 02:28:16;;;;;;;25.80;11.23;;;;;;;;;;5063466;28;20108;-58
2023/02/23 02:31:19;;;;;;;23.25;10.45;;;;;;;;;;5065825;28;20062;-58
2023/02/23 02:34:10;;;;;;;25.17;11.30;;;;;;;;;;5066625;28;20036;-58
2023/02/23 02:37:09;;;;;;;26.45;10.77;;;;;;;;;;5065609;28;20103;-59
2023/02/23 02:39:52;;;;;;;20.70;10.45;;;;;;;;;;5066828;28;20100;-58
2023/02/23 02:42:36;;;;;;;25.92;11.13;;;;;;;;;;5067058;28;20039;-57
2023/02/23 02:45:27;;;;;;;26.20;11.65;;;;;;;;;;5065583;28;20524;-58
2023/02/23 02:48:24;;;;;;;23.40;11.38;;;;;;;;;;5057472;28;20044;-58
2023/02/23 02:50:56;;;;;;;19.65;10.65;;;;;;;;;;5066417;28;20032;-58
2023/02/23 02:53:51;;;;;;;22.60;10.63;;;;;;;;;;5064710;28;20035;-58
2023/02/23 02:56:20;;;;;;;25.33;10.30;;;;;;;;;;5063197;28;20440;-58
2023/02/23 02:58:48;;;;;;;22.83;10.88;;;;;;;;;;5065008;28;20548;-56
2023/02/23 04:19:50;;;;;;;37.67;16.38;;;;;;;;;;5066858;28;20599;-57
2023/02/23 04:22:15;;;;;;;36.58;16.02;;;;;;;;;;5068158;28;20024;-57
2023/02/23 04:24:41;;;;;;;36.30;15.35;;;;;;;;;;5066295;28;20448;-58
2023/02/23 04:27:06;;;;;;;36.22;16.27;;;;;;;;;;5065244;28;20082;-57
2023/02/23 04:29:31;;;;;;;35.65;15.57;;;;;;;;;;5064692;28;20035;-58
2023/02/23 04:31:57;;;;;;;42.80;16.60;;;;;;;;;;5064724;28;20390;-58
2023/02/23 04:34:22;;;;;;;34.78;15.57;;;;;;;;;;5064149;28;20027;-57
2023/02/23 04:36:50;;;;;;;35.25;15.07;;;;;;;;;;5064207;28;20082;-57
2023/02/23 04:39:15;;;;;;;35.80;14.95;;;;;;;;;;5062845;28;20432;-57
2023/02/23 04:41:41;;;;;;;35.33;14.93;;;;;;;;;;5064483;28;20028;-57
2023/02/23 04:44:06;;;;;;;37.78;15.85;;;;;;;;;;5067757;28;20485;-57
2023/02/23 04:46:32;;;;;;;40.83;15.80;;;;;;;;;;5064608;28;20021;-56
2023/02/23 04:48:58;;;;;;;40.00;15.93;;;;;;;;;;5063907;28;20391;-56
2023/02/23 04:51:23;;;;;;;38.33;17.13;;;;;;;;;;5062540;28;20077;-58
2023/02/23 04:53:49;;;;;;;41.22;16.05;;;;;;;;;;5065242;28;20081;-58
2023/02/23 04:56:14;;;;;;;40.85;17.38;;;;;;;;;;5069127;28;20033;-58
2023/02/23 04:58:41;;;;;;;39.72;15.60;;;;;;;;;;5066627;28;20031;-58
2023/02/23 05:01:08;;;;;;;37.28;16.23;;;;;;;;;;5050928;28;20241;-58
2023/02/23 05:03:35;;;;;;;31.42;15.93;;;;;;;;;;5069459;28;20508;-58
2023/02/23 05:06:00;;;;;;;39.05;17.40;;;;;;;;;;5068984;28;20390;-59
2023/02/23 05:08:25;;;;;;;38.83;15.88;;;;;;;;;;5068330;28;20081;-58
2023/02/23 05:10:51;;;;;;;38.30;17.67;;;;;;;;;;5067451;28;20112;-58
2023/02/23 05:13:16;;;;;;;44.03;17.00;;;;;;;;;;5065508;28;20035;-56
2023/02/23 05:15:41;;;;;;;40.15;18.27;;;;;;;;;;5070891;28;20017;-58
2023/02/23 05:18:07;;;;;;;70.38;23.48;;;;;;;;;;5068440;28;20032;-57
2023/02/23 05:20:33;;;;;;;61.13;22.80;;;;;;;;;;5069670;28;20021;-57
2023/02/23 05:22:58;;;;;;;60.58;21.63;;;;;;;;;;5070240;28;20119;-57
2023/02/23 05:25:24;;;;;;;47.65;18.88;;;;;;;;;;5069301;28;20024;-56
2023/02/23 05:27:49;;;;;;;40.78;16.20;;;;;;;;;;5067457;28;20371;-57
2023/02/23 05:30:15;;;;;;;40.97;16.95;;;;;;;;;;5068580;28;20039;-57
2023/02/23 05:32:40;;;;;;;43.58;17.17;;;;;;;;;;5069577;28;20051;-57
2023/02/23 05:35:06;;;;;;;46.85;18.50;;;;;;;;;;5068562;28;20024;-57
2023/02/23 05:37:32;;;;;;;46.78;18.85;;;;;;;;;;5067001;28;20545;-58
2023/02/23 05:39:58;;;;;;;48.53;20.15;;;;;;;;;;5067481;28;20040;-57
2023/02/23 05:42:23;;;;;;;57.50;20.77;;;;;;;;;;5065649;28;20074;-57
2023/02/23 05:44:48;;;;;;;53.00;20.35;;;;;;;;;;5068152;28;20441;-58
2023/02/23 05:47:14;;;;;;;57.35;21.33;;;;;;;;;;5068193;28;20451;-53
2023/02/23 05:49:39;;;;;;;44.17;18.02;;;;;;;;;;5069605;28;20567;-58
2023/02/23 05:52:04;;;;;;;43.10;16.42;;;;;;;;;;5065536;28;20028;-58
2023/02/23 05:54:30;;;;;;;33.80;14.50;;;;;;;;;;5068378;28;20383;-58
2023/02/23 05:56:55;;;;;;;34.13;14.38;;;;;;;;;;5068596;28;20075;-58
2023/02/23 05:59:21;;;;;;;26.92;11.85;;;;;;;;;;5070305;28;20020;-58
2023/02/23 06:01:46;;;;;;;29.75;11.55;;;;;;;;;;5068417;28;20107;-57
2023/02/23 06:04:12;;;;;;;26.73;11.95;;;;;;;;;;5064927;28;20047;-58
2023/02/23 06:06:38;;;;;;;21.25;11.52;;;;;;;;;;5065178;28;20028;-57
2023/02/23 06:09:04;;;;;;;23.77;10.80;;;;;;;;;;5068222;28;20093;-56
2023/02/23 06:11:30;;;;;;;21.77;9.98;;;;;;;;;;5066980;28;20409;-56
2023/02/23 06:13:58;;;;;;;21.38;9.05;;;;;;;;;;5068336;28;20055;-58
2023/02/23 06:16:25;;;;;;;19.77;8.70;;;;;;;;;;5071247;28;20025;-58
2023/02/23 06:18:50;;;;;;;21.27;9.10;;;;;;;;;;5072868;28;20485;-58
2023/02/23 06:21:15;;;;;;;22.10;9.63;;;;;;;;;;5068914;28;20031;-58
2023/02/23 06:23:41;;;;;;;21.70;9.98;;;;;;;;;;5070732;28;20378;-58
2023/02/23 06:26:07;;;;;;;21.40;9.10;;;;;;;;;;5069047;28;20055;-58
2023/02/23 06:28:32;;;;;;;18.33;8.50;;;;;;;;;;5068080;28;20104;-58
2023/02/23 06:30:58;;;;;;;17.15;9.68;;;;;;;;;;5071133;28;20064;-57
2023/02/23 06:33:24;;;;;;;18.48;8.75;;;;;;;;;;5067555;28;20021;-58
2023/02/23 06:35:50;;;;;;;21.17;9.93;;;;;;;;;;5068135;28;20024;-58
2023/02/23 06:38:15;;;;;;;23.65;10.45;;;;;;;;;;5067487;28;20028;-57
2023/02/23 06:40:42;;;;;;;20.25;8.63;;;;;;;;;;5066897;28;20024;-58
2023/02/23 06:43:07;;;;;;;19.20;8.60;;;;;;;;;;5069740;28;20037;-58
2023/02/23 06:45:33;;;;;;;18.05;8.40;;;;;;;;;;5066589;28;20021;-56
2023/02/23 06:47:59;;;;;;;18.08;8.00;;;;;;;;;;5067470;28;20115;-57
2023/02/23 06:50:24;;;;;;;18.90;8.15;;;;;;;;;;5067046;28;20029;-58
2023/02/23 06:52:50;;;;;;;16.73;8.63;;;;;;;;;;5065867;28;20378;-58
2023/02/23 06:55:16;;;;;;;26.67;10.15;;;;;;;;;;5067555;28;20035;-57
2023/02/23 06:57:42;;;;;;;28.55;11.02;;;;;;;;;;5066839;28;20117;-58
2023/02/23 07:00:11;;;;;;;37.05;12.30;;;;;;;;;;5068525;28;20025;-58
2023/02/23 07:02:37;;;;;;;24.00;11.50;;;;;;;;;;5066211;28;20032;-57
2023/02/23 07:05:03;;;;;;;45.08;17.88;;;;;;;;;;5069097;28;20031;-58
2023/02/23 07:07:29;;;;;;;32.90;13.25;;;;;;;;;;5066238;28;20028;-58
2023/02/23 07:09:54;;;;;;;23.15;9.48;;;;;;;;;;5066635;28;20627;-58
2023/02/23 07:12:20;;;;;;;21.35;9.07;;;;;;;;;;5067846;28;20028;-58
2023/02/23 07:14:45;;;;;;;20.08;8.52;;;;;;;;;;5068037;28;20020;-58
2023/02/23 07:17:11;;;;;;;27.25;11.75;;;;;;;;;;5068397;28;20447;-58
2023/02/23 07:19:36;;;;;;;25.63;9.63;;;;;;;;;;5067330;28;20067;-58
2023/02/23 07:22:02;;;;;;;25.15;10.50;;;;;;;;;;5068231;28;20025;-58
2023/02/23 07:24:28;;;;;;;22.80;9.80;;;;;;;;;;5066340;28;20032;-56
2023/02/23 07:26:53;;;;;;;20.23;9.82;;;;;;;;;;5067131;28;20032;-58
2023/02/23 07:29:19;;;;;;;27.83;12.63;;;;;;;;;;5066941;28;20059;-57
2023/02/23 07:31:45;;;;;;;25.08;12.32;;;;;;;;;;5067820;28;20032;-58
2023/02/23 07:34:10;;;;;;;33.45;15.40;;;;;;;;;;5066713;28;20031;-58
2023/02/23 07:36:36;;;;;;;32.28;14.57;;;;;;;;;;5065585;28;20555;-58
2023/02/23 07:39:03;;;;;;;52.20;23.48;;;;;;;;;;5065445;28;20032;-58
2023/02/23 07:41:29;;;;;;;43.97;21.38;;;;;;;;;;5066004;28;20016;-58
2023/02/23 07:43:54;;;;;;;36.72;18.83;;;;;;;;;;5062740;28;20190;-58
2023/02/23 07:46:20;;;;;;;36.90;16.20;;;;;;;;;;5069555;28;20029;-57
2023/02/23 07:48:45;;;;;;;42.75;19.73;;;;;;;;;;5066477;28;20028;-58
2023/02/23 07:51:12;;;;;;;42.10;17.90;;;;;;;;;;5066190;28;20031;-58
2023/02/23 07:53:39;;;;;;;34.80;15.70;;;;;;;;;;5066157;28;20405;-57
2023/02/23 07:56:07;;;;;;;44.80;18.05;;;;;;;;;;5063600;28;20437;-58
2023/02/23 07:58:33;;;;;;;43.75;19.05;;;;;;;;;;5064989;28;20454;-58
2023/02/23 08:00:58;;;;;;;36.53;15.50;;;;;;;;;;5066738;28;20020;-58
2023/02/23 08:03:24;;;;;;;28.05;13.57;;;;;;;;;;5066290;28;20527;-58
2023/02/23 08:05:50;;;;;;;37.03;16.40;;;;;;;;;;5064816;28;20031;-58
2023/02/23 08:08:15;;;;;;;36.15;16.25;;;;;;;;;;5066044;28;20024;-58
2023/02/23 08:10:41;;;;;;;32.28;15.10;;;;;;;;;;5066240;28;20411;-58
2023/02/23 08:13:06;;;;;;;35.25;14.00;;;;;;;;;;5066112;28;20036;-57
2023/02/23 08:15:31;;;;;;;26.33;10.43;;;;;;;;;;5067928;28;20120;-57
2023/02/23 08:17:57;;;;;;;21.48;9.63;;;;;;;;;;5067415;28;20060;-57
2023/02/23 08:20:23;;;;;;;22.80;9.38;;;;;;;;;;5067121;28;20016;-57
2023/02/23 08:22:54;;;;;;;18.23;8.50;;;;;;;;;;5066617;28;20453;-58
2023/02/23 08:25:20;;;;;;;17.52;8.30;;;;;;;;;;5068363;28;20489;-57
2023/02/23 08:27:46;;;;;;;23.08;8.45;;;;;;;;;;5063295;28;20099;-58
2023/02/23 08:30:13;;;;;;;17.27;8.15;;;;;;;;;;5067572;28;20028;-57
2023/02/23 08:32:39;;;;;;;17.23;7.50;;;;;;;;;;5069588;28;20108;-58
2023/02/23 08:35:06;;;;;;;14.27;7.18;;;;;;;;;;5068878;28;20095;-58
2023/02/23 08:37:32;;;;;;;15.43;6.18;;;;;;;;;;5069013;28;20036;-57
2023/02/23 08:39:58;;;;;;;15.25;6.93;;;;;;;;;;5069309;28;20017;-58
2023/02/23 08:42:23;;;;;;;16.63;7.13;;;;;;;;;;5069819;28;20020;-58
2023/02/23 08:44:49;;;;;;;16.15;7.43;;;;;;;;;;5070097;28;20074;-57
2023/02/23 08:47:22;;;;;;;15.40;6.30;;;;;;;;;;5068589;28;20055;-57
2023/02/23 08:49:50;;;;;;;20.30;7.40;;;;;;;;;;5063607;28;20547;-58
2023/02/23 08:52:16;;;;;;;17.30;6.40;;;;;;;;;;5069238;28;20455;-58
2023/02/23 08:54:42;;;;;;;15.52;6.38;;;;;;;;;;5070368;28;20532;-58
2023/02/23 08:57:07;;;;;;;15.30;7.03;;;;;;;;;;5065561;28;20032;-57
2023/02/23 08:59:32;;;;;;;18.55;6.15;;;;;;;;;;5067746;28;20024;-57
2023/02/23 09:01:58;;;;;;;21.33;6.88;;;;;;;;;;5070185;28;20024;-56
2023/02/23 09:04:23;;;;;;;14.85;6.40;;;;;;;;;;5069267;28;20545;-56
2023/02/23 09:06:49;;;;;;;14.68;6.43;;;;;;;;;;5067563;28;20099;-56
2023/02/23 09:09:15;;;;;;;17.17;5.55;;;;;;;;;;5069904;28;20032;-57
2023/02/23 09:11:41;;;;;;;16.52;5.97;;;;;;;;;;5072745;28;20042;-57
2023/02/23 09:14:07;;;;;;;14.10;5.93;;;;;;;;;;5071282;28;20510;-57
2023/02/23 09:16:34;;;;;;;23.88;9.07;;;;;;;;;;5069886;28;20111;-57
2023/02/23 09:19:00;;;;;;;16.25;6.72;;;;;;;;;;5070725;28;20046;-57
2023/02/23 09:21:27;;;;;;;13.05;5.68;;;;;;;;;;5070936;28;20055;-58
2023/02/23 09:23:54;;;;;;;16.30;5.82;;;;;;;;;;5069546;28;20029;-57
2023/02/23 09:26:21;;;;;;;16.52;6.45;;;;;;;;;;5067539;28;20029;-58
2023/02/23 09:28:46;;;;;;;15.15;5.80;;;;;;;;;;5069172;28;20035;-58
2023/02/23 09:31:15;;;;;;;13.45;6.13;;;;;;;;;;5071346;28;20028;-58
2023/02/23 09:33:41;;;;;;;13.32;6.15;;;;;;;;;;5068595;28;20028;-58
2023/02/23 09:36:15;;;;;;;12.60;5.60;;;;;;;;;;5067402;28;20390;-58
2023/02/23 09:38:41;;;;;;;14.43;5.88;;;;;;;;;;5069373;28;20040;-57
2023/02/23 09:41:51;;;;;;;13.82;7.03;;;;;;;;;;5071641;28;20104;-57
2023/02/23 09:44:20;;;;;;;;;;;;;;;;;;5020384;28;20060;-57
2023/02/23 09:46:48;;;;;;;22.23;10.23;;;;;;;;;;5062249;28;19951;-58
2023/02/23 09:49:21;;;;;;;29.45;12.93;;;;;;;;;;5068643;28;20064;-58
2023/02/23 09:51:56;;;;;;;32.08;14.75;;;;;;;;;;5064937;28;20035;-57
2023/02/23 09:54:23;;;;;;;34.53;17.30;;;;;;;;;;5067282;28;20485;-58
2023/02/23 09:56:50;;;;;;;39.42;18.55;;;;;;;;;;5068499;28;20025;-58
2023/02/23 09:59:18;;;;;;;35.40;18.35;;;;;;;;;;5066997;28;20386;-59
2023/02/23 10:01:46;;;;;;;46.55;20.65;;;;;;;;;;5067204;28;20382;-57
2023/02/23 10:04:32;;;;;;;39.95;20.08;;;;;;;;;;5069129;28;20024;-57
2023/02/23 10:07:09;;;;;;;37.75;19.15;;;;;;;;;;5067418;28;20081;-57
2023/02/23 10:10:05;;;;;;;45.05;19.73;;;;;;;;;;5066635;28;20103;-57
2023/02/23 10:13:08;;;;;;;34.33;18.23;;;;;;;;;;5056047;28;20037;-58
2023/02/23 10:15:39;;;;;;;34.88;17.15;;;;;;;;;;5067780;28;20509;-58
2023/02/23 10:18:31;;;;;;;35.95;16.85;;;;;;;;;;5069142;28;20027;-57
2023/02/23 10:21:06;;;;;;;35.65;17.33;;;;;;;;;;5069196;28;20638;-57
2023/02/23 10:23:44;;;;;;;37.60;18.52;;;;;;;;;;5067460;28;20504;-57
2023/02/23 10:26:25;;;;;;;36.75;16.67;;;;;;;;;;5068694;28;20528;-58
2023/02/23 10:28:52;;;;;;;40.40;18.38;;;;;;;;;;5068624;28;20132;-58
2023/02/23 10:31:38;;;;;;;38.03;18.10;;;;;;;;;;5064931;28;20068;-57
2023/02/23 10:34:12;;;;;;;37.35;16.75;;;;;;;;;;5062813;28;20107;-57
2023/02/23 10:36:52;;;;;;;37.60;16.58;;;;;;;;;;5066583;28;20028;-57
2023/02/23 10:39:18;;;;;;;32.50;15.07;;;;;;;;;;5066200;28;20025;-56
2023/02/23 10:41:44;;;;;;;31.52;11.32;;;;;;;;;;5067354;28;20083;-57
2023/02/23 10:44:19;;;;;;;20.67;9.52;;;;;;;;;;5068540;28;20085;-58
2023/02/23 10:46:49;;;;;;;17.25;8.20;;;;;;;;;;5065531;28;20024;-57
2023/02/23 10:49:23;;;;;;;20.20;9.40;;;;;;;;;;5066928;28;20156;-57
2023/02/23 10:51:50;;;;;;;22.95;9.35;;;;;;;;;;5061180;28;20058;-57
2023/02/23 10:54:44;;;;;;;24.92;9.93;;;;;;;;;;5067001;28;20119;-56
2023/02/23 10:57:13;;;;;;;25.13;8.80;;;;;;;;;;5066955;28;20051;-58
2023/02/23 11:00:02;;;;;;;19.77;7.32;;;;;;;;;;5065975;28;20466;-57
2023/02/23 11:02:29;;;;;;;;;;;;;;;;;;5067312;28;20214;-58
2023/02/23 11:04:57;;;;;;;18.63;6.13;;;;;;;;;;5066842;28;19909;-57
2023/02/23 11:07:28;;;;;;;26.42;7.35;;;;;;;;;;5067115;28;20488;-57
2023/02/23 11:09:58;;;;;;;15.73;5.95;;;;;;;;;;5063057;28;20021;-58
2023/02/23 11:12:39;;;;;;;16.02;5.97;;;;;;;;;;5069125;28;20464;-58
2023/02/23 11:15:25;;;;;;;17.67;5.95;;;;;;;;;;5063979;28;20020;-57
2023/02/23 11:18:02;;;;;;;13.85;5.60;;;;;;;;;;5066759;28;20103;-58
2023/02/23 11:20:34;;;;;;;14.43;5.68;;;;;;;;;;5066203;28;20056;-57
2023/02/23 11:23:15;;;;;;;15.18;5.75;;;;;;;;;;5066410;28;20476;-57
2023/02/23 11:25:43;;;;;;;14.23;5.70;;;;;;;;;;5066683;28;20051;-58
2023/02/23 11:28:23;;;;;;;18.45;6.47;;;;;;;;;;5064961;28;20027;-58
2023/02/23 11:30:49;;;;;;;17.95;5.25;;;;;;;;;;5059791;28;20027;-57
2023/02/23 11:33:22;;;;;;;19.25;6.10;;;;;;;;;;5067528;28;20032;-57
2023/02/23 11:35:47;;;;;;;14.95;5.53;;;;;;;;;;5066478;28;20024;-57
2023/02/23 11:38:24;;;;;;;18.67;5.60;;;;;;;;;;5064228;28;20028;-57
2023/02/23 11:41:03;;;;;;;11.52;4.75;;;;;;;;;;5060886;28;20050;-58
2023/02/23 11:43:29;;;;;;;22.75;7.75;;;;;;;;;;5067037;28;20460;-58
2023/02/23 11:45:57;;;;;;;18.65;7.82;;;;;;;;;;5063906;28;20111;-58
2023/02/23 11:48:27;;;;;;;21.92;9.43;;;;;;;;;;5063616;28;20032;-59
2023/02/23 11:50:53;;;;;;;21.60;7.43;;;;;;;;;;5065210;28;20468;-58
2023/02/23 11:53:27;;;;;;;12.98;6.07;;;;;;;;;;5065669;28;20035;-58
2023/02/23 11:55:54;;;;;;;16.60;5.20;;;;;;;;;;5066269;28;20033;-58
2023/02/23 11:58:23;;;;;;;16.52;5.60;;;;;;;;;;5066951;28;20036;-58
2023/02/23 12:01:10;;;;;;;15.25;5.38;;;;;;;;;;5066229;28;20020;-58
2023/02/23 12:03:35;;;;;;;23.70;6.25;;;;;;;;;;5063819;28;20024;-58
2023/02/23 12:06:01;;;;;;;14.95;4.75;;;;;;;;;;5066194;28;20034;-58
2023/02/23 12:09:08;;;;;;;14.40;5.22;;;;;;;;;;5066033;28;20501;-57
2023/02/23 12:11:39;;;;;;;12.63;4.50;;;;;;;;;;5048241;28;20052;-58
2023/02/23 12:14:32;;;;;;;14.63;4.82;;;;;;;;;;5071407;28;20020;-57
2023/02/23 12:17:24;;;;;;;10.35;4.65;;;;;;;;;;5065518;28;20025;-58
2023/02/23 12:20:13;;;;;;;13.25;4.30;;;;;;;;;;5060250;28;20525;-58
2023/02/23 12:22:45;;;;;;;13.20;4.43;;;;;;;;;;5064343;28;20060;-58
2023/02/23 12:25:55;;;;;;;12.55;4.20;;;;;;;;;;5066893;28;20034;-58
2023/02/23 12:28:35;;;;;;;9.98;3.80;;;;;;;;;;5023085;28;20108;-59
2023/02/23 12:31:21;;;;;;;11.32;3.80;;;;;;;;;;5023999;28;20507;-58
2023/02/23 12:33:52;;;;;;;11.43;4.57;;;;;;;;;;5047758;28;20041;-59
2023/02/23 12:36:38;;;;;;;14.70;4.65;;;;;;;;;;5066648;28;20039;-59
2023/02/23 12:39:29;;;;;;;13.73;5.70;;;;;;;;;;5062915;28;20028;-59
2023/02/23 12:42:16;;;;;;;9.98;4.53;;;;;;;;;;5066888;28;20547;-59
2023/02/23 12:44:58;;;;;;;15.73;5.20;;;;;;;;;;5060816;28;20061;-58
2023/02/23 12:47:28;;;;;;;13.32;5.28;;;;;;;;;;5063042;28;20074;-58
2023/02/23 12:50:18;;;;;;;12.35;4.63;;;;;;;;;;5066822;28;20025;-59
2023/02/23 12:52:52;;;;;;;15.02;4.93;;;;;;;;;;5062976;28;20017;-58
2023/02/23 12:55:40;;;;;;;13.38;4.03;;;;;;;;;;5062980;28;20048;-59
2023/02/23 12:58:13;;;;;;;13.95;4.35;;;;;;;;;;5062552;28;20028;-58
2023/02/23 13:00:43;;;;;;;13.65;3.78;;;;;;;;;;5063382;28;20100;-58
2023/02/23 13:03:29;;;;;;;13.15;4.50;;;;;;;;;;5066163;28;20043;-58
2023/02/23 13:06:00;;;;;;;11.32;4.15;;;;;;;;;;5065822;28;20025;-57
2023/02/23 13:08:34;;;;;;;9.88;4.03;;;;;;;;;;5067515;28;20017;-58
2023/02/23 13:11:15;;;;;;;15.23;4.40;;;;;;;;;;5065059;28;20036;-58
2023/02/23 13:14:28;;;;;;;9.15;3.97;;;;;;;;;;5068326;28;20024;-58
2023/02/23 13:17:08;;;;;;;13.38;4.28;;;;;;;;;;5032850;28;20090;-58
2023/02/23 13:19:33;;;;;;;;;;;;;;;;;;5070754;28;20019;-58
2023/02/23 13:22:35;;;;;;;11.00;3.90;;;;;;;;;;5069105;28;19912;-58
2023/02/23 13:25:03;;;;;;;11.70;3.70;;;;;;;;;;5063919;28;20020;-59
2023/02/23 13:27:42;;;;;;;10.80;4.35;;;;;;;;;;5068469;28;20086;-59
2023/02/23 13:30:09;;;;;;;12.07;3.87;;;;;;;;;;5065805;28;20032;-58
2023/02/23 13:32:37;;;;;;;12.00;3.95;;;;;;;;;;5068241;28;20028;-58
2023/02/23 13:35:05;;;;;;;7.25;3.90;;;;;;;;;;5070064;28;20513;-58
2023/02/23 13:37:49;;;;;;;12.02;3.85;;;;;;;;;;5070819;28;20501;-59
2023/02/23 13:40:14;;;;;;;13.60;4.53;;;;;;;;;;5071179;28;20044;-58
2023/02/23 13:43:02;;;;;;;14.05;4.07;;;;;;;;;;5068859;28;20044;-58
2023/02/23 13:45:31;;;;;;;11.20;4.50;;;;;;;;;;5069217;28;20032;-58
2023/02/23 13:48:17;;;;;;;8.80;5.00;;;;;;;;;;5066315;28;20024;-58
2023/02/23 13:50:54;;;;;;;11.90;4.70;;;;;;;;;;5068938;28;20027;-58
2023/02/23 13:53:35;;;;;;;10.30;5.18;;;;;;;;;;5071189;28;20032;-58
2023/02/23 13:56:07;;;;;;;14.90;5.35;;;;;;;;;;5067853;28;20024;-58
2023/02/23 13:58:33;;;;;;;13.23;5.57;;;;;;;;;;5066383;28;20021;-58
2023/02/23 14:01:07;;;;;;;17.17;7.00;;;;;;;;;;5068105;28;20047;-58
2023/02/23 14:03:40;;;;;;;17.92;6.47;;;;;;;;;;5067064;28;20024;-57
2023/02/23 14:06:06;;;;;;;15.25;6.25;;;;;;;;;;5064205;28;20028;-58
2023/02/23 14:08:36;;;;;;;15.90;5.93;;;;;;;;;;5069766;28;20059;-59
2023/02/23 14:11:02;;;;;;;17.40;5.85;;;;;;;;;;5069434;28;20032;-58
2023/02/23 14:13:59;;;;;;;13.70;5.50;;;;;;;;;;5068920;28;20039;-58
2023/02/23 14:16:24;;;;;;;16.05;6.97;;;;;;;;;;5060962;28;20032;-58
2023/02/23 14:19:04;;;;;;;13.57;6.10;;;;;;;;;;5068475;28;20028;-58
2023/02/23 14:21:41;;;;;;;16.90;5.93;;;;;;;;;;5066910;28;20020;-58
2023/02/23 14:24:20;;;;;;;10.48;5.15;;;;;;;;;;5068585;28;20028;-58
2023/02/23 14:27:07;;;;;;;12.70;5.68;;;;;;;;;;5067608;28;20036;-58
2023/02/23 14:29:39;;;;;;;12.77;4.68;;;;;;;;;;5067186;28;20528;-58
2023/02/23 14:32:11;;;;;;;18.65;5.90;;;;;;;;;;5068861;28;20028;-58
2023/02/23 14:34:48;;;;;;;22.33;10.25;;;;;;;;;;5067224;28;20029;-58
2023/02/23 14:37:41;;;;;;;21.77;11.15;;;;;;;;;;5066078;28;20032;-58
2023/02/23 14:40:12;;;;;;;19.67;8.38;;;;;;;;;;5065108;28;20040;-58
2023/02/23 14:42:39;;;;;;;27.65;9.32;;;;;;;;;;5067246;28;20107;-55
2023/02/23 14:45:27;;;;;;;23.25;8.02;;;;;;;;;;5067505;28;20114;-58
2023/02/23 14:47:58;;;;;;;15.50;5.78;;;;;;;;;;5063349;28;20029;-57
2023/02/23 14:50:31;;;;;;;15.63;5.47;;;;;;;;;;5065120;28;20024;-57
2023/02/23 14:52:57;;;;;;;10.75;5.30;;;;;;;;;;5065752;28;20107;-58
2023/02/23 14:55:36;;;;;;;14.68;5.43;;;;;;;;;;5069498;28;20048;-58
2023/02/23 14:58:03;;;;;;;22.35;9.35;;;;;;;;;;5066412;28;20024;-58
2023/02/23 15:00:39;;;;;;;32.85;12.07;;;;;;;;;;5066729;28;20140;-58
2023/02/23 15:03:11;;;;;;;25.00;9.73;;;;;;;;;;5060986;28;20021;-58
2023/02/23 15:05:51;;;;;;;24.48;11.75;;;;;;;;;;5063216;28;20133;-58
2023/02/23 15:08:29;;;;;;;19.88;9.30;;;;;;;;;;5068497;28;20107;-57
2023/02/23 15:11:11;;;;;;;17.50;8.32;;;;;;;;;;5065555;28;20025;-58
2023/02/23 15:13:40;;;;;;;13.82;6.75;;;;;;;;;;5067705;28;20031;-58
2023/02/23 15:16:28;;;;;;;13.77;5.40;;;;;;;;;;5068755;28;20024;-58
2023/02/23 15:18:54;;;;;;;12.00;5.97;;;;;;;;;;5053917;28;20040;-58
2023/02/23 15:21:22;;;;;;;32.45;13.38;;;;;;;;;;5068983;28;20029;-58
2023/02/23 15:23:50;;;;;;;37.85;18.42;;;;;;;;;;5066674;28;20043;-58
2023/02/23 15:26:35;;;;;;;23.55;10.85;;;;;;;;;;5065412;28;20017;-58
2023/02/23 15:29:05;;;;;;;15.60;8.07;;;;;;;;;;5070800;28;20031;-58
2023/02/23 15:31:30;;;;;;;14.25;6.97;;;;;;;;;;5066295;28;20032;-58
2023/02/23 15:33:56;;;;;;;15.32;5.60;;;;;;;;;;5066346;28;20025;-58
2023/02/23 15:36:33;;;;;;;15.52;6.57;;;;;;;;;;5066984;28;20031;-58
2023/02/23 15:39:04;;;;;;;13.77;6.38;;;;;;;;;;5067322;28;20077;-58
2023/02/23 15:41:35;;;;;;;16.75;6.22;;;;;;;;;;5066112;28;20024;-58
2023/02/23 15:44:22;;;;;;;16.83;6.20;;;;;;;;;;5065298;28;20052;-57
2023/02/23 15:46:55;;;;;;;17.02;6.25;;;;;;;;;;5061147;28;20082;-58
2023/02/23 15:49:26;;;;;;;16.92;7.22;;;;;;;;;;5065854;28;20417;-57
2023/02/23 15:52:05;;;;;;;13.25;6.50;;;;;;;;;;5064718;28;20028;-57
2023/02/23 15:54:37;;;;;;;12.88;7.18;;;;;;;;;;5065751;28;20043;-58
2023/02/23 15:57:12;;;;;;;14.80;6.70;;;;;;;;;;5066343;28;20031;-58
2023/02/23 15:59:38;;;;;;;17.88;6.93;;;;;;;;;;5064678;28;20116;-58
2023/02/23 16:02:15;;;;;;;17.75;6.40;;;;;;;;;;5066959;28;20107;-58
2023/02/23 16:04:43;;;;;;;20.80;8.57;;;;;;;;;;5070252;28;20482;-58
2023/02/23 16:07:20;;;;;;;25.63;10.40;;;;;;;;;;5063107;28;20463;-61
2023/02/23 16:09:51;;;;;;;19.02;7.63;;;;;;;;;;5068064;28;20115;-58